sensor_id;sensor_type;location;lat;lon;timestamp;P1;durP1;ratioP1;P2;durP2;ratioP2
14900;SDS011;7542;49.078;9.194;2024-01-15T00:00:31;4.20;;;3.87;;
14900;SDS011;7542;49.078;9.194;2024-01-15T00:01:34;4.60;;;4.20;;
14900;SDS011;7542;49.078;9.194;2024-01-15T00:02:36;3.80;;;3.50;;
14900;SDS011;7542;49.078;9.194;2024-01-15T00:03:39;4.03;;;3.73;;
14900;SDS011;7542;49.078;9.194;2024-01-15T00:04:46;3.93;;;3.63;;
14900;SDS011;7542;49.078;9.194;2024-01-15T00:05:49;3.90;;;3.60;;
14900;SDS011;7542;49.078;9.194;2024-01-15T00:06:51;4.30;;;3.97;;
14900;SDS011;7542;49.078;9.194;2024-01-15T00:07:54;4.20;;;3.90;;
14900;SDS011;7542;49.078;9.194;2024-01-15T00:08:56;4.03;;;3.73;;
14900;SDS011;7542;49.078;9.194;2024-01-15T00:09:59;4.23;;;3.93;;
14900;SDS011;7542;49.078;9.194;2024-01-15T00:11:02;3.80;;;3.50;;
14900;SDS011;7542;49.078;9.194;2024-01-15T00:12:05;4.20;;;3.53;;
14900;SDS011;7542;49.078;9.194;2024-01-15T00:13:08;4.23;;;3.93;;
14900;SDS011;7542;49.078;9.194;2024-01-15T00:14:11;4.63;;;4.23;;
14900;SDS011;7542;49.078;9.194;2024-01-15T00:15:15;3.80;;;3.50;;
14900;SDS011;7542;49.078;9.194;2024-01-15T00:16:18;4.43;;;4.03;;
14900;SDS011;7542;49.078;9.194;2024-01-15T00:17:20;4.13;;;3.83;;
14900;SDS011;7542;49.078;9.194;2024-01-15T00:18:23;4.23;;;3.93;;
14900;SDS011;7542;49.078;9.194;2024-01-15T00:19:25;4.13;;;3.63;;
14900;SDS011;7542;49.078;9.194;2024-01-15T00:20:29;4.07;;;3.73;;
14900;SDS011;7542;49.078;9.194;2024-01-15T00:21:31;3.93;;;3.60;;
14900;SDS011;7542;49.078;9.194;2024-01-15T00:22:34;4.30;;;3.93;;
14900;SDS011;7542;49.078;9.194;2024-01-15T00:23:39;4.03;;;3.73;;
14900;SDS011;7542;49.078;9.194;2024-01-15T00:24:45;4.07;;;3.77;;
14900;SDS011;7542;49.078;9.194;2024-01-15T00:25:48;4.17;;;3.80;;
14900;SDS011;7542;49.078;9.194;2024-01-15T00:26:52;4.33;;;3.93;;
14900;SDS011;7542;49.078;9.194;2024-01-15T00:27:55;4.00;;;3.70;;
14900;SDS011;7542;49.078;9.194;2024-01-15T00:28:57;3.83;;;3.60;;
14900;SDS011;7542;49.078;9.194;2024-01-15T00:30:00;3.97;;;3.67;;
14900;SDS011;7542;49.078;9.194;2024-01-15T00:31:02;3.90;;;3.60;;
14900;SDS011;7542;49.078;9.194;2024-01-15T00:32:08;4.30;;;4.00;;
14900;SDS011;7542;49.078;9.194;2024-01-15T00:33:10;4.23;;;3.93;;
14900;SDS011;7542;49.078;9.194;2024-01-15T00:34:14;3.67;;;3.37;;
14900;SDS011;7542;49.078;9.194;2024-01-15T00:35:16;3.90;;;3.60;;
14900;SDS011;7542;49.078;9.194;2024-01-15T00:36:19;3.60;;;3.30;;
14900;SDS011;7542;49.078;9.194;2024-01-15T00:37:21;4.17;;;3.77;;
14900;SDS011;7542;49.078;9.194;2024-01-15T00:38:24;3.77;;;3.57;;
14900;SDS011;7542;49.078;9.194;2024-01-15T00:39:26;4.00;;;3.67;;
14900;SDS011;7542;49.078;9.194;2024-01-15T00:40:29;3.80;;;3.50;;
14900;SDS011;7542;49.078;9.194;2024-01-15T00:41:32;3.63;;;3.43;;
14900;SDS011;7542;49.078;9.194;2024-01-15T00:42:34;3.80;;;3.50;;
14900;SDS011;7542;49.078;9.194;2024-01-15T00:43:36;3.87;;;3.57;;
14900;SDS011;7542;49.078;9.194;2024-01-15T00:44:39;4.50;;;3.73;;
14900;SDS011;7542;49.078;9.194;2024-01-15T00:45:41;4.17;;;3.77;;
14900;SDS011;7542;49.078;9.194;2024-01-15T00:46:44;3.80;;;3.50;;
14900;SDS011;7542;49.078;9.194;2024-01-15T00:47:47;3.83;;;3.53;;
14900;SDS011;7542;49.078;9.194;2024-01-15T00:48:50;3.80;;;3.50;;
14900;SDS011;7542;49.078;9.194;2024-01-15T00:49:52;3.70;;;3.40;;
14900;SDS011;7542;49.078;9.194;2024-01-15T00:50:55;3.77;;;3.47;;
14900;SDS011;7542;49.078;9.194;2024-01-15T00:51:57;3.47;;;3.27;;
14900;SDS011;7542;49.078;9.194;2024-01-15T00:53:00;3.60;;;3.40;;
14900;SDS011;7542;49.078;9.194;2024-01-15T00:54:02;3.47;;;3.27;;
14900;SDS011;7542;49.078;9.194;2024-01-15T00:55:05;3.73;;;3.43;;
14900;SDS011;7542;49.078;9.194;2024-01-15T00:56:08;4.20;;;3.90;;
14900;SDS011;7542;49.078;9.194;2024-01-15T00:57:10;3.70;;;3.40;;
14900;SDS011;7542;49.078;9.194;2024-01-15T00:58:13;3.77;;;3.50;;
14900;SDS011;7542;49.078;9.194;2024-01-15T00:59:15;4.00;;;3.70;;
14900;SDS011;7542;49.078;9.194;2024-01-15T01:00:19;3.40;;;3.10;;
14900;SDS011;7542;49.078;9.194;2024-01-15T01:01:21;3.90;;;3.67;;
14900;SDS011;7542;49.078;9.194;2024-01-15T01:02:23;3.70;;;3.33;;
14900;SDS011;7542;49.078;9.194;2024-01-15T01:03:27;3.53;;;3.33;;
14900;SDS011;7542;49.078;9.194;2024-01-15T01:04:30;3.87;;;3.57;;
14900;SDS011;7542;49.078;9.194;2024-01-15T01:05:35;3.50;;;3.30;;
14900;SDS011;7542;49.078;9.194;2024-01-15T01:06:38;3.60;;;3.33;;
14900;SDS011;7542;49.078;9.194;2024-01-15T01:07:41;3.50;;;3.30;;
14900;SDS011;7542;49.078;9.194;2024-01-15T01:08:43;3.50;;;3.20;;
14900;SDS011;7542;49.078;9.194;2024-01-15T01:09:46;3.63;;;3.43;;
14900;SDS011;7542;49.078;9.194;2024-01-15T01:10:49;3.20;;;3.00;;
14900;SDS011;7542;49.078;9.194;2024-01-15T01:11:51;3.47;;;3.27;;
14900;SDS011;7542;49.078;9.194;2024-01-15T01:12:54;3.27;;;3.07;;
14900;SDS011;7542;49.078;9.194;2024-01-15T01:13:56;3.53;;;3.23;;
14900;SDS011;7542;49.078;9.194;2024-01-15T01:14:59;3.77;;;3.50;;
14900;SDS011;7542;49.078;9.194;2024-01-15T01:16:01;3.33;;;3.13;;
14900;SDS011;7542;49.078;9.194;2024-01-15T01:17:04;3.57;;;3.30;;
14900;SDS011;7542;49.078;9.194;2024-01-15T01:18:07;3.70;;;3.40;;
14900;SDS011;7542;49.078;9.194;2024-01-15T01:19:10;3.30;;;3.10;;
14900;SDS011;7542;49.078;9.194;2024-01-15T01:20:13;3.50;;;3.30;;
14900;SDS011;7542;49.078;9.194;2024-01-15T01:21:19;3.83;;;3.53;;
14900;SDS011;7542;49.078;9.194;2024-01-15T01:22:22;3.43;;;3.23;;
14900;SDS011;7542;49.078;9.194;2024-01-15T01:23:24;3.70;;;3.40;;
14900;SDS011;7542;49.078;9.194;2024-01-15T01:24:26;3.30;;;3.10;;
14900;SDS011;7542;49.078;9.194;2024-01-15T01:25:29;3.47;;;3.27;;
14900;SDS011;7542;49.078;9.194;2024-01-15T01:26:31;3.20;;;3.00;;
14900;SDS011;7542;49.078;9.194;2024-01-15T01:27:34;3.30;;;3.10;;
14900;SDS011;7542;49.078;9.194;2024-01-15T01:28:37;3.70;;;3.40;;
14900;SDS011;7542;49.078;9.194;2024-01-15T01:29:39;3.30;;;3.10;;
14900;SDS011;7542;49.078;9.194;2024-01-15T01:30:41;3.37;;;3.10;;
14900;SDS011;7542;49.078;9.194;2024-01-15T01:31:44;3.57;;;3.27;;
14900;SDS011;7542;49.078;9.194;2024-01-15T01:32:47;3.60;;;3.30;;
14900;SDS011;7542;49.078;9.194;2024-01-15T01:33:49;3.37;;;3.17;;
14900;SDS011;7542;49.078;9.194;2024-01-15T01:34:52;3.50;;;3.27;;
14900;SDS011;7542;49.078;9.194;2024-01-15T01:35:55;3.50;;;3.20;;
14900;SDS011;7542;49.078;9.194;2024-01-15T01:36:57;3.73;;;3.43;;
14900;SDS011;7542;49.078;9.194;2024-01-15T01:38:00;3.47;;;3.27;;
14900;SDS011;7542;49.078;9.194;2024-01-15T01:39:03;3.20;;;3.00;;
14900;SDS011;7542;49.078;9.194;2024-01-15T01:40:05;3.10;;;2.90;;
14900;SDS011;7542;49.078;9.194;2024-01-15T01:41:08;3.50;;;3.20;;
14900;SDS011;7542;49.078;9.194;2024-01-15T01:42:11;3.60;;;3.40;;
14900;SDS011;7542;49.078;9.194;2024-01-15T01:43:14;3.80;;;3.50;;
14900;SDS011;7542;49.078;9.194;2024-01-15T01:44:16;3.27;;;3.07;;
14900;SDS011;7542;49.078;9.194;2024-01-15T01:45:18;2.60;;;2.40;;
14900;SDS011;7542;49.078;9.194;2024-01-15T01:46:21;2.83;;;2.63;;
14900;SDS011;7542;49.078;9.194;2024-01-15T01:47:24;3.37;;;3.07;;
14900;SDS011;7542;49.078;9.194;2024-01-15T01:48:27;3.40;;;3.20;;
14900;SDS011;7542;49.078;9.194;2024-01-15T01:49:31;3.60;;;3.30;;
14900;SDS011;7542;49.078;9.194;2024-01-15T01:50:37;3.47;;;3.20;;
14900;SDS011;7542;49.078;9.194;2024-01-15T01:51:39;3.10;;;2.83;;
14900;SDS011;7542;49.078;9.194;2024-01-15T01:52:42;3.77;;;3.43;;
14900;SDS011;7542;49.078;9.194;2024-01-15T01:53:44;3.07;;;2.87;;
14900;SDS011;7542;49.078;9.194;2024-01-15T01:54:48;3.30;;;3.10;;
14900;SDS011;7542;49.078;9.194;2024-01-15T01:55:51;3.40;;;3.20;;
14900;SDS011;7542;49.078;9.194;2024-01-15T01:56:54;3.73;;;3.50;;
14900;SDS011;7542;49.078;9.194;2024-01-15T01:57:58;3.20;;;3.00;;
14900;SDS011;7542;49.078;9.194;2024-01-15T01:59:02;3.33;;;3.13;;
14900;SDS011;7542;49.078;9.194;2024-01-15T02:00:05;3.00;;;2.80;;
14900;SDS011;7542;49.078;9.194;2024-01-15T02:01:08;3.20;;;3.00;;
14900;SDS011;7542;49.078;9.194;2024-01-15T02:02:11;2.70;;;2.60;;
14900;SDS011;7542;49.078;9.194;2024-01-15T02:03:14;3.00;;;2.80;;
14900;SDS011;7542;49.078;9.194;2024-01-15T02:04:17;3.00;;;2.80;;
14900;SDS011;7542;49.078;9.194;2024-01-15T02:05:22;3.33;;;3.13;;
14900;SDS011;7542;49.078;9.194;2024-01-15T02:06:24;3.20;;;3.00;;
14900;SDS011;7542;49.078;9.194;2024-01-15T02:07:27;3.13;;;2.93;;
14900;SDS011;7542;49.078;9.194;2024-01-15T02:08:30;3.40;;;3.20;;
14900;SDS011;7542;49.078;9.194;2024-01-15T02:09:32;2.80;;;2.63;;
14900;SDS011;7542;49.078;9.194;2024-01-15T02:10:35;2.87;;;2.70;;
14900;SDS011;7542;49.078;9.194;2024-01-15T02:11:37;3.27;;;3.07;;
14900;SDS011;7542;49.078;9.194;2024-01-15T02:12:40;3.33;;;3.13;;
14900;SDS011;7542;49.078;9.194;2024-01-15T02:13:45;3.47;;;3.27;;
14900;SDS011;7542;49.078;9.194;2024-01-15T02:14:47;3.00;;;2.80;;
14900;SDS011;7542;49.078;9.194;2024-01-15T02:15:50;4.20;;;2.97;;
14900;SDS011;7542;49.078;9.194;2024-01-15T02:16:52;2.80;;;2.70;;
14900;SDS011;7542;49.078;9.194;2024-01-15T02:17:58;3.20;;;3.00;;
14900;SDS011;7542;49.078;9.194;2024-01-15T02:19:02;3.10;;;2.90;;
14900;SDS011;7542;49.078;9.194;2024-01-15T02:20:05;3.07;;;2.87;;
14900;SDS011;7542;49.078;9.194;2024-01-15T02:21:09;3.40;;;3.20;;
14900;SDS011;7542;49.078;9.194;2024-01-15T02:22:13;3.40;;;3.20;;
14900;SDS011;7542;49.078;9.194;2024-01-15T02:23:15;3.23;;;3.03;;
14900;SDS011;7542;49.078;9.194;2024-01-15T02:24:18;2.93;;;2.73;;
14900;SDS011;7542;49.078;9.194;2024-01-15T02:25:20;3.00;;;2.80;;
14900;SDS011;7542;49.078;9.194;2024-01-15T02:26:22;2.80;;;2.70;;
14900;SDS011;7542;49.078;9.194;2024-01-15T02:27:26;3.00;;;2.70;;
14900;SDS011;7542;49.078;9.194;2024-01-15T02:28:29;2.87;;;2.70;;
14900;SDS011;7542;49.078;9.194;2024-01-15T02:29:32;3.27;;;3.07;;
14900;SDS011;7542;49.078;9.194;2024-01-15T02:30:38;3.17;;;2.93;;
14900;SDS011;7542;49.078;9.194;2024-01-15T02:31:42;2.90;;;2.70;;
14900;SDS011;7542;49.078;9.194;2024-01-15T02:32:44;2.97;;;2.83;;
14900;SDS011;7542;49.078;9.194;2024-01-15T02:33:47;3.60;;;3.40;;
14900;SDS011;7542;49.078;9.194;2024-01-15T02:34:50;2.97;;;2.77;;
14900;SDS011;7542;49.078;9.194;2024-01-15T02:35:53;3.13;;;2.93;;
14900;SDS011;7542;49.078;9.194;2024-01-15T02:36:55;3.10;;;2.90;;
14900;SDS011;7542;49.078;9.194;2024-01-15T02:37:57;3.10;;;2.90;;
14900;SDS011;7542;49.078;9.194;2024-01-15T02:39:00;2.77;;;2.67;;
14900;SDS011;7542;49.078;9.194;2024-01-15T02:40:02;2.90;;;2.70;;
14900;SDS011;7542;49.078;9.194;2024-01-15T02:41:05;3.00;;;2.80;;
14900;SDS011;7542;49.078;9.194;2024-01-15T02:42:08;3.00;;;2.90;;
14900;SDS011;7542;49.078;9.194;2024-01-15T02:43:10;3.10;;;2.90;;
14900;SDS011;7542;49.078;9.194;2024-01-15T02:44:14;3.17;;;2.97;;
14900;SDS011;7542;49.078;9.194;2024-01-15T02:45:17;2.70;;;2.50;;
14900;SDS011;7542;49.078;9.194;2024-01-15T02:46:19;2.90;;;2.70;;
14900;SDS011;7542;49.078;9.194;2024-01-15T02:47:22;2.70;;;2.60;;
14900;SDS011;7542;49.078;9.194;2024-01-15T02:48:25;3.10;;;2.90;;
14900;SDS011;7542;49.078;9.194;2024-01-15T02:49:27;3.23;;;3.03;;
14900;SDS011;7542;49.078;9.194;2024-01-15T02:50:30;3.13;;;2.93;;
14900;SDS011;7542;49.078;9.194;2024-01-15T02:51:32;2.43;;;2.33;;
14900;SDS011;7542;49.078;9.194;2024-01-15T02:52:35;2.90;;;2.80;;
14900;SDS011;7542;49.078;9.194;2024-01-15T02:53:38;3.00;;;2.70;;
14900;SDS011;7542;49.078;9.194;2024-01-15T02:54:42;3.10;;;2.90;;
14900;SDS011;7542;49.078;9.194;2024-01-15T02:55:44;3.20;;;3.00;;
14900;SDS011;7542;49.078;9.194;2024-01-15T02:56:46;3.10;;;2.90;;
14900;SDS011;7542;49.078;9.194;2024-01-15T02:57:49;2.83;;;2.63;;
14900;SDS011;7542;49.078;9.194;2024-01-15T02:58:51;3.07;;;2.87;;
14900;SDS011;7542;49.078;9.194;2024-01-15T02:59:54;2.80;;;2.60;;
14900;SDS011;7542;49.078;9.194;2024-01-15T03:00:56;3.20;;;3.00;;
14900;SDS011;7542;49.078;9.194;2024-01-15T03:01:59;2.63;;;2.53;;
14900;SDS011;7542;49.078;9.194;2024-01-15T03:03:01;2.70;;;2.60;;
14900;SDS011;7542;49.078;9.194;2024-01-15T03:04:04;3.07;;;2.77;;
14900;SDS011;7542;49.078;9.194;2024-01-15T03:05:06;2.60;;;2.50;;
14900;SDS011;7542;49.078;9.194;2024-01-15T03:06:09;2.70;;;2.50;;
14900;SDS011;7542;49.078;9.194;2024-01-15T03:07:12;2.67;;;2.57;;
14900;SDS011;7542;49.078;9.194;2024-01-15T03:08:15;2.50;;;2.40;;
14900;SDS011;7542;49.078;9.194;2024-01-15T03:09:18;2.57;;;2.40;;
14900;SDS011;7542;49.078;9.194;2024-01-15T03:10:20;2.90;;;2.80;;
14900;SDS011;7542;49.078;9.194;2024-01-15T03:11:23;2.70;;;2.60;;
14900;SDS011;7542;49.078;9.194;2024-01-15T03:12:25;2.90;;;2.80;;
14900;SDS011;7542;49.078;9.194;2024-01-15T03:13:28;2.93;;;2.83;;
14900;SDS011;7542;49.078;9.194;2024-01-15T03:14:30;2.73;;;2.63;;
14900;SDS011;7542;49.078;9.194;2024-01-15T03:15:33;2.40;;;2.30;;
14900;SDS011;7542;49.078;9.194;2024-01-15T03:16:35;2.90;;;2.70;;
14900;SDS011;7542;49.078;9.194;2024-01-15T03:17:37;2.90;;;2.70;;
14900;SDS011;7542;49.078;9.194;2024-01-15T03:18:40;2.60;;;2.50;;
14900;SDS011;7542;49.078;9.194;2024-01-15T03:19:42;2.50;;;2.40;;
14900;SDS011;7542;49.078;9.194;2024-01-15T03:20:44;2.67;;;2.57;;
14900;SDS011;7542;49.078;9.194;2024-01-15T03:21:47;2.97;;;2.80;;
14900;SDS011;7542;49.078;9.194;2024-01-15T03:22:50;2.47;;;2.37;;
14900;SDS011;7542;49.078;9.194;2024-01-15T03:23:52;3.10;;;2.90;;
14900;SDS011;7542;49.078;9.194;2024-01-15T03:24:55;2.50;;;2.40;;
14900;SDS011;7542;49.078;9.194;2024-01-15T03:25:58;2.60;;;2.50;;
14900;SDS011;7542;49.078;9.194;2024-01-15T03:27:00;2.63;;;2.53;;
14900;SDS011;7542;49.078;9.194;2024-01-15T03:28:03;3.00;;;2.80;;
14900;SDS011;7542;49.078;9.194;2024-01-15T03:29:06;2.77;;;2.60;;
14900;SDS011;7542;49.078;9.194;2024-01-15T03:30:09;2.50;;;2.40;;
14900;SDS011;7542;49.078;9.194;2024-01-15T03:31:12;3.13;;;2.93;;
14900;SDS011;7542;49.078;9.194;2024-01-15T03:32:14;2.63;;;2.47;;
14900;SDS011;7542;49.078;9.194;2024-01-15T03:33:17;3.23;;;3.03;;
14900;SDS011;7542;49.078;9.194;2024-01-15T03:34:20;2.93;;;2.73;;
14900;SDS011;7542;49.078;9.194;2024-01-15T03:35:22;2.40;;;2.30;;
14900;SDS011;7542;49.078;9.194;2024-01-15T03:36:30;2.53;;;2.43;;
14900;SDS011;7542;49.078;9.194;2024-01-15T03:37:33;3.00;;;2.80;;
14900;SDS011;7542;49.078;9.194;2024-01-15T03:38:35;2.60;;;2.50;;
14900;SDS011;7542;49.078;9.194;2024-01-15T03:39:43;2.67;;;2.57;;
14900;SDS011;7542;49.078;9.194;2024-01-15T03:40:46;2.50;;;2.40;;
14900;SDS011;7542;49.078;9.194;2024-01-15T03:41:48;2.63;;;2.53;;
14900;SDS011;7542;49.078;9.194;2024-01-15T03:42:51;2.57;;;2.47;;
14900;SDS011;7542;49.078;9.194;2024-01-15T03:43:53;2.77;;;2.57;;
14900;SDS011;7542;49.078;9.194;2024-01-15T03:44:56;2.63;;;2.53;;
14900;SDS011;7542;49.078;9.194;2024-01-15T03:45:58;2.67;;;2.57;;
14900;SDS011;7542;49.078;9.194;2024-01-15T03:47:01;2.70;;;2.60;;
14900;SDS011;7542;49.078;9.194;2024-01-15T03:48:04;2.80;;;2.70;;
14900;SDS011;7542;49.078;9.194;2024-01-15T03:49:06;2.83;;;2.63;;
14900;SDS011;7542;49.078;9.194;2024-01-15T03:50:09;2.60;;;2.50;;
14900;SDS011;7542;49.078;9.194;2024-01-15T03:51:11;2.60;;;2.50;;
14900;SDS011;7542;49.078;9.194;2024-01-15T03:52:16;2.60;;;2.50;;
14900;SDS011;7542;49.078;9.194;2024-01-15T03:53:19;2.40;;;2.30;;
14900;SDS011;7542;49.078;9.194;2024-01-15T03:54:21;2.73;;;2.57;;
14900;SDS011;7542;49.078;9.194;2024-01-15T03:55:23;2.80;;;2.63;;
14900;SDS011;7542;49.078;9.194;2024-01-15T03:56:26;2.87;;;2.67;;
14900;SDS011;7542;49.078;9.194;2024-01-15T03:57:28;2.93;;;2.73;;
14900;SDS011;7542;49.078;9.194;2024-01-15T03:58:31;2.50;;;2.40;;
14900;SDS011;7542;49.078;9.194;2024-01-15T03:59:33;2.70;;;2.60;;
14900;SDS011;7542;49.078;9.194;2024-01-15T04:00:36;2.47;;;2.37;;
14900;SDS011;7542;49.078;9.194;2024-01-15T04:01:39;2.50;;;2.40;;
14900;SDS011;7542;49.078;9.194;2024-01-15T04:02:42;2.70;;;2.60;;
14900;SDS011;7542;49.078;9.194;2024-01-15T04:03:45;2.40;;;2.30;;
14900;SDS011;7542;49.078;9.194;2024-01-15T04:04:47;2.27;;;2.17;;
14900;SDS011;7542;49.078;9.194;2024-01-15T04:05:50;2.43;;;2.33;;
14900;SDS011;7542;49.078;9.194;2024-01-15T04:06:52;2.73;;;2.63;;
14900;SDS011;7542;49.078;9.194;2024-01-15T04:07:55;2.33;;;2.23;;
14900;SDS011;7542;49.078;9.194;2024-01-15T04:08:58;2.80;;;2.60;;
14900;SDS011;7542;49.078;9.194;2024-01-15T04:10:00;2.30;;;2.20;;
14900;SDS011;7542;49.078;9.194;2024-01-15T04:11:04;2.40;;;2.30;;
14900;SDS011;7542;49.078;9.194;2024-01-15T04:12:06;2.43;;;2.33;;
14900;SDS011;7542;49.078;9.194;2024-01-15T04:13:09;2.60;;;2.50;;
14900;SDS011;7542;49.078;9.194;2024-01-15T04:14:11;2.63;;;2.43;;
14900;SDS011;7542;49.078;9.194;2024-01-15T04:15:13;2.50;;;2.40;;
14900;SDS011;7542;49.078;9.194;2024-01-15T04:16:16;2.73;;;2.53;;
14900;SDS011;7542;49.078;9.194;2024-01-15T04:17:19;2.63;;;2.53;;
14900;SDS011;7542;49.078;9.194;2024-01-15T04:18:23;2.67;;;2.47;;
14900;SDS011;7542;49.078;9.194;2024-01-15T04:19:26;2.37;;;2.27;;
14900;SDS011;7542;49.078;9.194;2024-01-15T04:20:28;2.47;;;2.37;;
14900;SDS011;7542;49.078;9.194;2024-01-15T04:21:30;2.40;;;2.30;;
14900;SDS011;7542;49.078;9.194;2024-01-15T04:22:34;2.53;;;2.43;;
14900;SDS011;7542;49.078;9.194;2024-01-15T04:23:37;2.50;;;2.40;;
14900;SDS011;7542;49.078;9.194;2024-01-15T04:24:40;2.97;;;2.77;;
14900;SDS011;7542;49.078;9.194;2024-01-15T04:25:43;2.33;;;2.17;;
14900;SDS011;7542;49.078;9.194;2024-01-15T04:26:47;2.33;;;2.23;;
14900;SDS011;7542;49.078;9.194;2024-01-15T04:27:49;2.70;;;2.50;;
14900;SDS011;7542;49.078;9.194;2024-01-15T04:28:52;2.30;;;2.20;;
14900;SDS011;7542;49.078;9.194;2024-01-15T04:29:54;2.40;;;2.30;;
14900;SDS011;7542;49.078;9.194;2024-01-15T04:30:57;2.27;;;2.17;;
14900;SDS011;7542;49.078;9.194;2024-01-15T04:31:59;2.40;;;2.30;;
14900;SDS011;7542;49.078;9.194;2024-01-15T04:33:02;2.33;;;2.23;;
14900;SDS011;7542;49.078;9.194;2024-01-15T04:34:05;2.33;;;2.23;;
14900;SDS011;7542;49.078;9.194;2024-01-15T04:35:07;2.70;;;2.50;;
14900;SDS011;7542;49.078;9.194;2024-01-15T04:36:09;2.70;;;2.50;;
14900;SDS011;7542;49.078;9.194;2024-01-15T04:37:13;2.80;;;2.60;;
14900;SDS011;7542;49.078;9.194;2024-01-15T04:38:15;2.30;;;2.20;;
14900;SDS011;7542;49.078;9.194;2024-01-15T04:39:18;2.40;;;2.30;;
14900;SDS011;7542;49.078;9.194;2024-01-15T04:40:20;2.40;;;2.30;;
14900;SDS011;7542;49.078;9.194;2024-01-15T04:41:22;2.40;;;2.30;;
14900;SDS011;7542;49.078;9.194;2024-01-15T04:42:25;2.60;;;2.40;;
14900;SDS011;7542;49.078;9.194;2024-01-15T04:43:28;2.30;;;2.20;;
14900;SDS011;7542;49.078;9.194;2024-01-15T04:44:30;2.17;;;2.07;;
14900;SDS011;7542;49.078;9.194;2024-01-15T04:45:33;2.33;;;2.23;;
14900;SDS011;7542;49.078;9.194;2024-01-15T04:46:35;2.40;;;2.30;;
14900;SDS011;7542;49.078;9.194;2024-01-15T04:47:38;2.07;;;1.97;;
14900;SDS011;7542;49.078;9.194;2024-01-15T04:48:40;2.10;;;2.00;;
14900;SDS011;7542;49.078;9.194;2024-01-15T04:49:43;2.43;;;2.33;;
14900;SDS011;7542;49.078;9.194;2024-01-15T04:50:45;2.70;;;2.50;;
14900;SDS011;7542;49.078;9.194;2024-01-15T04:51:47;2.40;;;2.30;;
14900;SDS011;7542;49.078;9.194;2024-01-15T04:52:50;2.43;;;2.33;;
14900;SDS011;7542;49.078;9.194;2024-01-15T04:53:52;2.37;;;2.27;;
14900;SDS011;7542;49.078;9.194;2024-01-15T04:54:55;2.27;;;2.17;;
14900;SDS011;7542;49.078;9.194;2024-01-15T04:55:58;2.30;;;2.20;;
14900;SDS011;7542;49.078;9.194;2024-01-15T04:57:00;2.50;;;2.40;;
14900;SDS011;7542;49.078;9.194;2024-01-15T04:58:03;2.50;;;2.30;;
14900;SDS011;7542;49.078;9.194;2024-01-15T04:59:06;2.47;;;2.33;;
14900;SDS011;7542;49.078;9.194;2024-01-15T05:00:08;2.37;;;2.27;;
14900;SDS011;7542;49.078;9.194;2024-01-15T05:01:11;2.33;;;2.13;;
14900;SDS011;7542;49.078;9.194;2024-01-15T05:02:14;2.13;;;2.03;;
14900;SDS011;7542;49.078;9.194;2024-01-15T05:03:16;2.53;;;2.40;;
14900;SDS011;7542;49.078;9.194;2024-01-15T05:04:19;2.50;;;2.40;;
14900;SDS011;7542;49.078;9.194;2024-01-15T05:05:21;2.23;;;2.13;;
14900;SDS011;7542;49.078;9.194;2024-01-15T05:06:24;2.20;;;2.10;;
14900;SDS011;7542;49.078;9.194;2024-01-15T05:07:27;2.23;;;2.13;;
14900;SDS011;7542;49.078;9.194;2024-01-15T05:08:29;2.20;;;2.10;;
14900;SDS011;7542;49.078;9.194;2024-01-15T05:09:31;2.77;;;2.67;;
14900;SDS011;7542;49.078;9.194;2024-01-15T05:10:34;2.50;;;2.40;;
14900;SDS011;7542;49.078;9.194;2024-01-15T05:11:36;2.30;;;2.20;;
14900;SDS011;7542;49.078;9.194;2024-01-15T05:12:39;2.57;;;2.37;;
14900;SDS011;7542;49.078;9.194;2024-01-15T05:13:41;2.23;;;2.13;;
14900;SDS011;7542;49.078;9.194;2024-01-15T05:14:44;2.23;;;2.13;;
14900;SDS011;7542;49.078;9.194;2024-01-15T05:15:46;2.33;;;2.23;;
14900;SDS011;7542;49.078;9.194;2024-01-15T05:16:49;2.13;;;2.03;;
14900;SDS011;7542;49.078;9.194;2024-01-15T05:17:51;2.13;;;2.03;;
14900;SDS011;7542;49.078;9.194;2024-01-15T05:18:55;2.27;;;2.17;;
14900;SDS011;7542;49.078;9.194;2024-01-15T05:19:58;2.33;;;2.23;;
14900;SDS011;7542;49.078;9.194;2024-01-15T05:21:01;2.40;;;2.30;;
14900;SDS011;7542;49.078;9.194;2024-01-15T05:22:04;2.33;;;2.23;;
14900;SDS011;7542;49.078;9.194;2024-01-15T05:23:07;2.50;;;2.30;;
14900;SDS011;7542;49.078;9.194;2024-01-15T05:24:09;2.40;;;2.30;;
14900;SDS011;7542;49.078;9.194;2024-01-15T05:25:11;2.47;;;2.27;;
14900;SDS011;7542;49.078;9.194;2024-01-15T05:26:14;2.20;;;2.10;;
14900;SDS011;7542;49.078;9.194;2024-01-15T05:27:17;2.00;;;2.00;;
14900;SDS011;7542;49.078;9.194;2024-01-15T05:28:19;2.00;;;1.90;;
14900;SDS011;7542;49.078;9.194;2024-01-15T05:29:21;2.33;;;2.23;;
14900;SDS011;7542;49.078;9.194;2024-01-15T05:30:24;2.67;;;2.47;;
14900;SDS011;7542;49.078;9.194;2024-01-15T05:31:26;2.00;;;1.90;;
14900;SDS011;7542;49.078;9.194;2024-01-15T05:32:29;1.93;;;1.83;;
14900;SDS011;7542;49.078;9.194;2024-01-15T05:33:32;2.20;;;2.10;;
14900;SDS011;7542;49.078;9.194;2024-01-15T05:34:34;2.50;;;2.40;;
14900;SDS011;7542;49.078;9.194;2024-01-15T05:35:37;2.20;;;2.10;;
14900;SDS011;7542;49.078;9.194;2024-01-15T05:36:39;2.30;;;2.20;;
14900;SDS011;7542;49.078;9.194;2024-01-15T05:37:43;2.43;;;2.33;;
14900;SDS011;7542;49.078;9.194;2024-01-15T05:38:47;2.23;;;2.13;;
14900;SDS011;7542;49.078;9.194;2024-01-15T05:39:50;2.53;;;2.43;;
14900;SDS011;7542;49.078;9.194;2024-01-15T05:40:53;2.30;;;2.20;;
14900;SDS011;7542;49.078;9.194;2024-01-15T05:41:56;2.33;;;2.23;;
14900;SDS011;7542;49.078;9.194;2024-01-15T05:42:59;2.57;;;2.40;;
14900;SDS011;7542;49.078;9.194;2024-01-15T05:44:02;2.27;;;2.17;;
14900;SDS011;7542;49.078;9.194;2024-01-15T05:45:04;2.17;;;2.07;;
14900;SDS011;7542;49.078;9.194;2024-01-15T05:46:07;2.10;;;2.00;;
14900;SDS011;7542;49.078;9.194;2024-01-15T05:47:10;2.30;;;2.20;;
14900;SDS011;7542;49.078;9.194;2024-01-15T05:48:12;2.27;;;2.17;;
14900;SDS011;7542;49.078;9.194;2024-01-15T05:49:15;2.20;;;2.00;;
14900;SDS011;7542;49.078;9.194;2024-01-15T05:50:18;2.27;;;2.17;;
14900;SDS011;7542;49.078;9.194;2024-01-15T05:51:20;2.10;;;2.00;;
14900;SDS011;7542;49.078;9.194;2024-01-15T05:52:23;1.97;;;1.87;;
14900;SDS011;7542;49.078;9.194;2024-01-15T05:53:25;1.97;;;1.87;;
14900;SDS011;7542;49.078;9.194;2024-01-15T05:54:27;2.27;;;2.17;;
14900;SDS011;7542;49.078;9.194;2024-01-15T05:55:30;2.10;;;2.00;;
14900;SDS011;7542;49.078;9.194;2024-01-15T05:56:32;2.00;;;1.90;;
14900;SDS011;7542;49.078;9.194;2024-01-15T05:57:35;2.20;;;2.10;;
14900;SDS011;7542;49.078;9.194;2024-01-15T05:58:38;1.97;;;1.87;;
14900;SDS011;7542;49.078;9.194;2024-01-15T05:59:40;1.93;;;1.83;;
14900;SDS011;7542;49.078;9.194;2024-01-15T06:00:44;2.23;;;2.13;;
14900;SDS011;7542;49.078;9.194;2024-01-15T06:01:47;1.90;;;1.80;;
14900;SDS011;7542;49.078;9.194;2024-01-15T06:02:50;1.80;;;1.70;;
14900;SDS011;7542;49.078;9.194;2024-01-15T06:03:52;1.90;;;1.80;;
14900;SDS011;7542;49.078;9.194;2024-01-15T06:04:55;2.00;;;1.90;;
14900;SDS011;7542;49.078;9.194;2024-01-15T06:05:58;2.30;;;2.20;;
14900;SDS011;7542;49.078;9.194;2024-01-15T06:07:00;2.03;;;1.93;;
14900;SDS011;7542;49.078;9.194;2024-01-15T06:08:03;2.00;;;1.90;;
14900;SDS011;7542;49.078;9.194;2024-01-15T06:09:05;2.27;;;2.17;;
14900;SDS011;7542;49.078;9.194;2024-01-15T06:10:08;1.87;;;1.83;;
14900;SDS011;7542;49.078;9.194;2024-01-15T06:11:11;2.10;;;2.00;;
14900;SDS011;7542;49.078;9.194;2024-01-15T06:12:13;2.43;;;2.23;;
14900;SDS011;7542;49.078;9.194;2024-01-15T06:13:16;1.90;;;1.80;;
14900;SDS011;7542;49.078;9.194;2024-01-15T06:14:18;2.30;;;2.20;;
14900;SDS011;7542;49.078;9.194;2024-01-15T06:15:21;2.03;;;1.93;;
14900;SDS011;7542;49.078;9.194;2024-01-15T06:16:23;1.80;;;1.70;;
14900;SDS011;7542;49.078;9.194;2024-01-15T06:17:26;1.70;;;1.67;;
14900;SDS011;7542;49.078;9.194;2024-01-15T06:18:28;1.93;;;1.87;;
14900;SDS011;7542;49.078;9.194;2024-01-15T06:19:31;1.90;;;1.90;;
14900;SDS011;7542;49.078;9.194;2024-01-15T06:20:34;2.30;;;2.20;;
14900;SDS011;7542;49.078;9.194;2024-01-15T06:21:36;2.00;;;1.90;;
14900;SDS011;7542;49.078;9.194;2024-01-15T06:22:39;2.20;;;2.00;;
14900;SDS011;7542;49.078;9.194;2024-01-15T06:23:41;1.87;;;1.83;;